Time;durP1;ratioP1;P1;durP2;ratioP2;P2;SDS_P1;SDS_P2;PMS_P1;PMS_P2;Temp;Humidity;BMP_temperature;BMP_pressure;BME280_temperature;BME280_humidity;BME280_pressure;Samples;Min_cycle;Max_cycle;Signal;HPM_P1;HPM_P2
2022/09/22 00:01:13;;;;;;;1.27;0.60;;;11.60;48.10;;;;;;2315647;54;21852;-74
2022/09/22 00:03:41;;;;;;;1.80;0.70;;;11.60;48.30;;;;;;2377440;55;21481;-73
2022/09/22 00:06:10;;;;;;;1.58;0.68;;;11.60;48.40;;;;;;2369584;54;21312;-73
2022/09/22 00:08:38;;;;;;;1.48;0.50;;;11.50;48.30;;;;;;2313285;55;20957;-74
2022/09/22 00:11:12;;;;;;;1.37;0.52;;;11.50;48.40;;;;;;2315357;55;20953;-74
2022/09/22 00:13:40;;;;;;;1.42;0.52;;;11.50;48.40;;;;;;2315815;55;21452;-74
2022/09/22 00:16:07;;;;;;;1.73;0.68;;;11.40;48.40;;;;;;2296838;55;21504;-74
2022/09/22 00:18:33;;;;;;;1.33;0.60;;;11.40;48.30;;;;;;2315420;55;20980;-72
2022/09/22 00:21:08;;;;;;;1.20;0.50;;;11.40;48.30;;;;;;2312296;55;20925;-73
2022/09/22 00:23:38;;;;;;;1.33;0.60;;;11.30;48.30;;;;;;2455693;54;21386;-72
2022/09/22 00:26:09;;;;;;;1.98;0.50;;;11.30;48.20;;;;;;2319176;54;20953;-72
2022/09/22 00:28:37;;;;;;;2.40;0.60;;;11.30;48.30;;;;;;2346541;54;20995;-75
2022/09/22 00:31:05;;;;;;;0.85;0.50;;;11.20;48.30;;;;;;2315125;55;20953;-74
2022/09/22 00:33:32;;;;;;;1.50;0.60;;;11.20;48.50;;;;;;2313778;55;20972;-75
2022/09/22 00:36:10;;;;;;;1.30;0.50;;;11.20;48.40;;;;;;2309573;55;21963;-74
2022/09/22 00:38:38;;;;;;;1.25;0.60;;;11.10;48.70;;;;;;2555671;54;21017;-74
2022/09/22 00:41:10;;;;;;;1.25;0.50;;;11.10;48.60;;;;;;2314571;55;21017;-73
2022/09/22 00:43:37;;;;;;;1.40;0.60;;;11.10;48.70;;;;;;2297718;55;20953;-74
2022/09/22 00:46:21;;;;;;;1.40;0.50;;;11.10;48.60;;;;;;2306389;54;20961;-75
2022/09/22 00:48:56;;;;;;;1.00;0.50;;;11.00;48.80;;;;;;2343714;55;20931;-75
2022/09/22 00:51:25;;;;;;;0.70;0.40;;;11.00;48.70;;;;;;2301048;55;21925;-74
2022/09/22 00:53:51;;;;;;;1.05;0.40;;;11.00;48.60;;;;;;2312202;54;20946;-73
2022/09/22 00:56:24;;;;;;;1.02;0.50;;;10.90;48.50;;;;;;2386270;54;20961;-75
2022/09/22 00:58:53;;;;;;;1.80;0.77;;;10.90;48.60;;;;;;2314334;55;21860;-73
2022/09/22 01:01:19;;;;;;;1.02;0.50;;;10.90;48.60;;;;;;2316813;54;21033;-73
2022/09/22 01:03:46;;;;;;;0.88;0.40;;;10.90;48.60;;;;;;2324610;54;21053;-73
2022/09/22 01:06:15;;;;;;;1.05;0.50;;;10.80;48.60;;;;;;2308999;55;20977;-73
2022/09/22 01:08:42;;;;;;;1.55;0.60;;;10.80;48.60;;;;;;2366372;54;20981;-73
2022/09/22 01:11:09;;;;;;;1.40;0.50;;;10.80;48.60;;;;;;2312610;54;21065;-73
2022/09/22 01:14:58;;;;;;;0.65;0.50;;;10.70;48.50;;;;;;2314777;54;21022;-74
2022/09/22 01:17:36;;;;;;;1.23;0.50;;;10.70;49.00;;;;;;2338433;54;20977;-75
2022/09/22 01:21:42;;;;;;;1.55;0.52;;;10.70;48.70;;;;;;2315229;55;21000;-73
2022/09/22 01:26:01;;;;;;;1.75;0.55;;;10.60;49.10;;;;;;2421457;54;21009;-74
2022/09/22 01:31:50;;;;;;;1.12;0.50;;;10.60;49.10;;;;;;2449661;54;21076;-74
2022/09/22 01:34:31;;;;;;;2.20;0.55;;;10.50;49.20;;;;;;2401178;54;21048;-74
2022/09/22 01:38:37;;;;;;;1.20;0.50;;;10.50;48.70;;;;;;2314808;55;21457;-73
2022/09/22 01:41:08;;;;;;;1.92;0.60;;;10.40;49.00;;;;;;2313369;55;21001;-74
2022/09/22 01:44:02;;;;;;;1.25;0.60;;;10.40;48.80;;;;;;2317134;54;21789;-72
2022/09/22 01:46:30;;;;;;;4.10;1.20;;;10.30;48.90;;;;;;2308295;55;20978;-73
2022/09/22 01:48:59;;;;;;;4.35;1.37;;;10.30;48.80;;;;;;2300600;54;21500;-74
2022/09/22 01:52:47;;;;;;;4.37;1.52;;;10.30;48.90;;;;;;2338675;54;20953;-72
2022/09/22 01:55:30;;;;;;;4.05;1.52;;;10.20;49.40;;;;;;2351132;54;21545;-73
2022/09/22 01:58:02;;;;;;;4.10;1.52;;;10.20;49.20;;;;;;2338454;54;20949;-73
2022/09/22 02:00:30;;;;;;;4.07;1.40;;;10.20;49.30;;;;;;2337104;54;21438;-71
2022/09/22 02:03:09;;;;;;;3.78;1.50;;;10.20;49.20;;;;;;2314813;55;20921;-72
2022/09/22 02:05:56;;;;;;;3.03;1.17;;;10.10;49.20;;;;;;2376307;54;21021;-72
2022/09/22 02:08:58;;;;;;;2.28;1.00;;;10.10;49.50;;;;;;2436580;54;21625;-74
2022/09/22 02:11:25;;;;;;;2.47;0.90;;;10.10;49.30;;;;;;2314427;55;21024;-73
2022/09/22 02:13:54;;;;;;;2.75;1.00;;;10.00;49.00;;;;;;2313629;55;20949;-72
2022/09/22 02:16:21;;;;;;;3.45;0.80;;;10.00;49.00;;;;;;2302233;54;20949;-73
2022/09/22 02:19:49;;;;;;;2.15;0.82;;;10.00;49.10;;;;;;2320368;54;20984;-74
2022/09/22 02:22:16;;;;;;;2.30;0.90;;;10.00;49.40;;;;;;2315412;54;20973;-74
2022/09/22 02:24:44;;;;;;;1.75;0.75;;;9.90;50.00;;;;;;2315822;55;20945;-73
2022/09/22 02:27:34;;;;;;;1.55;0.68;;;9.90;50.00;;;;;;2317682;54;21041;-74
2022/09/22 02:30:07;;;;;;;1.92;0.75;;;9.90;50.20;;;;;;2319818;54;21009;-74
2022/09/22 02:32:39;;;;;;;1.70;0.75;;;9.90;50.10;;;;;;2315469;55;20965;-74
2022/09/22 02:35:06;;;;;;;2.65;0.90;;;9.80;50.00;;;;;;2333441;54;21018;-73
2022/09/22 02:39:08;;;;;;;2.08;0.70;;;9.80;50.20;;;;;;2307003;55;21041;-75
2022/09/22 02:44:35;;;;;;;2.03;0.65;;;9.80;50.50;;;;;;2367633;54;21020;-74
2022/09/22 02:47:08;;;;;;;1.83;0.80;;;9.70;50.30;;;;;;2424388;54;21040;-73
2022/09/22 02:49:35;;;;;;;1.55;0.60;;;9.70;50.10;;;;;;2483655;54;20921;-73
2022/09/22 02:52:06;;;;;;;1.20;0.60;;;9.70;50.10;;;;;;2296492;54;20980;-75
2022/09/22 02:54:33;;;;;;;2.15;0.65;;;9.70;50.20;;;;;;2314152;55;21024;-74
2022/09/22 02:56:59;;;;;;;1.10;0.60;;;9.60;50.10;;;;;;2315216;55;21048;-72
2022/09/22 02:59:25;;;;;;;1.65;0.68;;;9.60;50.10;;;;;;2350583;54;20974;-75
2022/09/22 03:01:54;;;;;;;1.52;0.70;;;9.60;50.10;;;;;;2355118;54;20953;-72
2022/09/22 03:04:20;;;;;;;1.27;0.50;;;9.50;50.10;;;;;;2314572;55;20984;-73
2022/09/22 03:06:47;;;;;;;1.58;0.60;;;9.50;50.30;;;;;;2505137;54;21787;-72
2022/09/22 03:09:15;;;;;;;2.03;0.60;;;9.50;50.40;;;;;;2320468;54;21394;-74
2022/09/22 03:11:42;;;;;;;2.80;0.75;;;9.50;50.40;;;;;;2316985;54;20976;-74
2022/09/22 03:14:08;;;;;;;1.77;0.90;;;9.50;50.40;;;;;;2315601;54;21012;-72
2022/09/22 03:16:35;;;;;;;2.35;0.88;;;9.40;50.50;;;;;;2328808;55;21020;-72
2022/09/22 03:19:01;;;;;;;2.47;1.10;;;9.40;50.70;;;;;;2327242;54;21525;-75
2022/09/22 03:21:28;;;;;;;2.30;0.82;;;9.40;50.70;;;;;;2338879;54;20949;-73
2022/09/22 03:23:56;;;;;;;1.85;0.75;;;9.40;50.80;;;;;;2322224;54;20977;-73
2022/09/22 03:26:26;;;;;;;2.83;0.90;;;9.40;50.80;;;;;;2315341;55;21478;-74
2022/09/22 03:28:53;;;;;;;1.25;0.70;;;9.40;50.80;;;;;;2313878;55;20956;-74
2022/09/22 03:31:20;;;;;;;1.80;0.77;;;9.40;50.70;;;;;;2314902;55;20961;-73
2022/09/22 03:33:46;;;;;;;1.67;0.68;;;9.30;50.60;;;;;;2298317;54;20996;-74
2022/09/22 03:36:16;;;;;;;1.83;0.80;;;9.30;50.60;;;;;;2326930;54;21714;-75
2022/09/22 03:38:43;;;;;;;1.83;0.80;;;9.30;50.60;;;;;;2428596;54;21105;-73
2022/09/22 03:41:09;;;;;;;2.05;1.05;;;9.30;50.90;;;;;;2414786;54;20990;-73
2022/09/22 03:43:36;;;;;;;2.00;0.80;;;9.30;50.80;;;;;;2314186;55;20988;-73
2022/09/22 03:46:02;;;;;;;1.75;0.90;;;9.20;50.70;;;;;;2341358;54;20933;-72
2022/09/22 03:48:30;;;;;;;1.50;0.68;;;9.20;50.70;;;;;;2345805;54;21058;-72
2022/09/22 03:50:56;;;;;;;2.10;0.75;;;9.30;50.90;;;;;;2315097;55;20980;-74
2022/09/22 03:53:23;;;;;;;1.90;0.80;;;9.20;50.80;;;;;;2335995;54;21071;-75
2022/09/22 03:55:50;;;;;;;1.25;0.60;;;9.20;50.80;;;;;;2301181;54;21010;-74
2022/09/22 03:58:18;;;;;;;2.42;0.80;;;9.20;50.70;;;;;;2310993;55;21968;-72
2022/09/22 04:00:46;;;;;;;2.30;1.10;;;9.20;50.70;;;;;;2314635;55;20969;-71
2022/09/22 04:03:13;;;;;;;1.40;0.70;;;9.10;50.70;;;;;;2453574;54;21036;-73
2022/09/22 04:05:41;;;;;;;1.70;0.90;;;9.10;50.80;;;;;;2297270;55;21058;-72
2022/09/22 04:08:07;;;;;;;2.03;0.73;;;9.10;50.60;;;;;;2325053;54;20972;-71
2022/09/22 04:10:34;;;;;;;2.40;1.10;;;9.10;50.70;;;;;;2314917;55;21096;-73
2022/09/22 04:13:01;;;;;;;2.03;0.85;;;9.10;50.90;;;;;;2308081;55;21045;-71
2022/09/22 04:15:27;;;;;;;1.75;0.80;;;9.10;51.10;;;;;;2301024;54;21064;-72
2022/09/22 04:17:54;;;;;;;1.67;0.80;;;9.00;50.90;;;;;;2391882;54;21462;-72
2022/09/22 04:20:20;;;;;;;2.15;0.85;;;9.00;50.90;;;;;;2313241;55;20977;-71
2022/09/22 04:22:47;;;;;;;1.77;0.88;;;8.90;50.90;;;;;;2315111;55;21011;-72
2022/09/22 04:25:13;;;;;;;3.50;0.95;;;9.00;51.00;;;;;;2352350;54;21432;-73
2022/09/22 04:27:39;;;;;;;1.40;0.70;;;9.00;51.10;;;;;;2317555;54;20925;-73
2022/09/22 04:30:07;;;;;;;2.00;0.85;;;9.00;51.20;;;;;;2323651;54;22010;-74
2022/09/22 04:32:33;;;;;;;1.98;0.80;;;8.90;51.10;;;;;;2332070;54;20989;-74
2022/09/22 04:35:00;;;;;;;3.85;0.98;;;8.90;51.10;;;;;;2355566;54;20940;-71
2022/09/22 04:37:28;;;;;;;2.62;0.90;;;8.90;51.10;;;;;;2394809;54;20950;-73
2022/09/22 04:39:54;;;;;;;2.30;0.88;;;8.90;51.10;;;;;;2340930;54;20956;-72
2022/09/22 04:42:21;;;;;;;2.10;0.77;;;8.90;51.10;;;;;;2315009;55;21892;-73
2022/09/22 04:44:48;;;;;;;2.55;1.00;;;8.80;51.10;;;;;;2334399;54;20961;-73
2022/09/22 04:47:18;;;;;;;2.05;0.82;;;8.90;51.20;;;;;;2303361;55;20997;-72
2022/09/22 04:49:45;;;;;;;2.20;0.70;;;8.90;51.20;;;;;;2308842;54;20977;-74
2022/09/22 04:52:11;;;;;;;1.80;0.75;;;8.80;51.10;;;;;;2297899;54;21485;-72
2022/09/22 04:54:39;;;;;;;2.60;1.10;;;8.80;51.10;;;;;;2377810;54;21481;-73
2022/09/22 04:57:06;;;;;;;1.67;0.77;;;8.80;51.20;;;;;;2340202;54;21853;-72
2022/09/22 04:59:34;;;;;;;2.40;1.00;;;8.80;51.20;;;;;;2341397;54;20957;-73
2022/09/22 05:02:00;;;;;;;2.40;1.30;;;8.80;51.20;;;;;;2314130;55;21028;-74
2022/09/22 05:04:27;;;;;;;2.67;1.52;;;8.80;51.20;;;;;;2314288;55;21453;-73
2022/09/22 05:06:55;;;;;;;2.33;1.20;;;8.80;51.20;;;;;;2355858;54;21005;-74
2022/09/22 05:09:24;;;;;;;2.90;1.30;;;8.70;51.30;;;;;;2319381;54;21072;-73
2022/09/22 05:11:51;;;;;;;2.78;1.62;;;8.70;51.20;;;;;;2311471;55;20985;-74
2022/09/22 05:14:17;;;;;;;2.25;1.10;;;8.70;51.20;;;;;;2306169;55;21551;-74
2022/09/22 05:16:46;;;;;;;2.80;1.20;;;8.70;51.20;;;;;;2358824;54;21021;-74
2022/09/22 05:19:13;;;;;;;2.20;1.05;;;8.60;51.20;;;;;;2313567;54;20977;-74
2022/09/22 05:21:40;;;;;;;2.00;0.98;;;8.60;51.20;;;;;;2339711;55;20960;-72
2022/09/22 05:24:06;;;;;;;2.65;1.20;;;8.60;51.80;;;;;;2490833;54;21028;-73
2022/09/22 05:26:36;;;;;;;3.05;1.65;;;8.60;51.30;;;;;;2314303;55;20972;-73
2022/09/22 05:29:07;;;;;;;4.07;2.10;;;8.60;51.30;;;;;;2330745;54;20949;-74
2022/09/22 05:31:35;;;;;;;3.12;1.50;;;8.60;51.30;;;;;;2315270;55;21104;-72
2022/09/22 05:34:02;;;;;;;3.53;1.40;;;8.60;51.40;;;;;;2314463;55;21785;-71
2022/09/22 05:36:31;;;;;;;2.60;1.45;;;8.60;51.40;;;;;;2314735;55;21017;-74
2022/09/22 05:38:57;;;;;;;3.10;1.75;;;8.60;51.40;;;;;;2389104;54;20913;-72
2022/09/22 05:41:25;;;;;;;2.75;1.40;;;8.60;51.40;;;;;;2318847;54;21484;-72
2022/09/22 05:43:52;;;;;;;3.28;1.70;;;8.50;51.30;;;;;;2314635;55;21021;-72
2022/09/22 05:46:18;;;;;;;2.72;1.45;;;8.50;51.30;;;;;;2331676;54;21517;-72
2022/09/22 05:48:52;;;;;;;2.40;1.20;;;8.50;51.50;;;;;;2314585;55;20973;-74
2022/09/22 05:51:19;;;;;;;2.40;1.20;;;8.50;51.60;;;;;;2314637;55;20984;-74
2022/09/22 05:53:46;;;;;;;2.37;1.10;;;8.50;51.70;;;;;;2382615;54;20953;-72
2022/09/22 05:56:13;;;;;;;2.75;1.30;;;8.50;51.80;;;;;;2297207;54;20962;-74
2022/09/22 05:58:39;;;;;;;2.33;1.12;;;8.50;51.70;;;;;;2350077;54;21044;-74
2022/09/22 06:01:06;;;;;;;2.80;1.15;;;8.50;51.70;;;;;;2315533;55;21541;-71
2022/09/22 06:03:35;;;;;;;2.08;1.12;;;8.50;51.80;;;;;;2382101;54;20989;-72
2022/09/22 06:06:02;;;;;;;2.33;1.30;;;8.50;51.80;;;;;;2314864;55;20957;-74
2022/09/22 06:08:28;;;;;;;2.15;1.10;;;8.50;51.80;;;;;;2315948;55;21032;-74
2022/09/22 06:10:55;;;;;;;3.50;1.15;;;8.50;51.70;;;;;;2315736;55;20977;-73
2022/09/22 06:13:31;;;;;;;3.45;1.35;;;8.50;51.70;;;;;;2315531;55;20989;-72
2022/09/22 06:16:00;;;;;;;2.80;1.70;;;8.50;51.90;;;;;;2315749;55;21072;-74
2022/09/22 06:18:27;;;;;;;2.42;1.27;;;8.50;51.90;;;;;;2314833;55;20976;-72
2022/09/22 06:20:57;;;;;;;5.40;2.33;;;8.50;51.90;;;;;;2327492;54;21004;-73
2022/09/22 06:23:25;;;;;;;4.75;2.75;;;8.50;52.00;;;;;;2414051;54;21012;-74
2022/09/22 06:25:58;;;;;;;5.78;3.75;;;8.50;52.10;;;;;;2346990;54;20997;-75
2022/09/22 06:28:24;;;;;;;7.57;4.47;;;8.50;52.20;;;;;;2327797;54;21915;-74
2022/09/22 06:30:51;;;;;;;5.57;3.47;;;8.50;52.20;;;;;;2362958;54;20987;-74
2022/09/22 06:33:17;;;;;;;7.35;4.40;;;8.50;52.20;;;;;;2309068;55;21024;-75
2022/09/22 06:35:45;;;;;;;5.75;3.90;;;8.60;52.40;;;;;;2290816;54;21041;-74
2022/09/22 06:38:13;;;;;;;5.12;3.50;;;8.60;52.50;;;;;;2346432;54;22391;-73
2022/09/22 06:40:43;;;;;;;5.00;3.08;;;8.60;52.60;;;;;;2312173;55;20985;-74
2022/09/22 06:43:24;;;;;;;4.53;2.53;;;8.70;52.80;;;;;;2328523;55;21020;-72
2022/09/22 06:45:51;;;;;;;3.55;2.20;;;8.70;52.90;;;;;;2343721;54;20949;-74
2022/09/22 06:48:19;;;;;;;3.55;1.83;;;8.70;52.90;;;;;;2325550;54;20936;-74
2022/09/22 06:50:49;;;;;;;3.50;2.03;;;8.80;53.10;;;;;;2295385;54;20994;-71
2022/09/22 06:53:16;;;;;;;4.37;2.00;;;8.80;53.20;;;;;;2344244;54;21023;-74
2022/09/22 06:55:43;;;;;;;2.62;1.45;;;8.90;53.20;;;;;;2314179;55;21336;-73
2022/09/22 06:58:12;;;;;;;3.10;1.65;;;8.90;53.30;;;;;;2362488;54;20981;-74
2022/09/22 07:00:41;;;;;;;4.15;2.17;;;9.00;53.40;;;;;;2379215;54;20965;-74
2022/09/22 07:03:39;;;;;;;3.40;1.80;;;9.00;53.40;;;;;;2316298;54;20930;-73
2022/09/22 07:06:07;;;;;;;3.58;1.70;;;9.10;54.00;;;;;;2415028;54;21020;-74
2022/09/22 07:08:34;;;;;;;3.12;1.80;;;9.20;54.10;;;;;;2363831;54;21013;-73
2022/09/22 07:11:09;;;;;;;2.92;1.55;;;9.20;53.70;;;;;;2315387;54;21332;-73
2022/09/22 07:13:42;;;;;;;4.25;1.58;;;9.30;54.00;;;;;;2341902;54;21500;-74
2022/09/22 07:16:16;;;;;;;2.72;1.42;;;9.40;54.20;;;;;;2315222;54;21291;-73
2022/09/22 07:18:47;;;;;;;3.53;1.33;;;9.50;54.20;;;;;;2302472;54;20969;-75
2022/09/22 07:21:15;;;;;;;3.58;1.50;;;9.50;54.30;;;;;;2308704;55;20985;-75
2022/09/22 07:23:43;;;;;;;3.40;1.45;;;9.60;54.30;;;;;;2369716;54;20956;-74
2022/09/22 07:26:12;;;;;;;3.75;1.20;;;9.70;54.50;;;;;;2405903;54;21052;-75
2022/09/22 07:28:39;;;;;;;3.03;1.17;;;9.80;54.60;;;;;;2313349;55;20961;-75
2022/09/22 07:31:11;;;;;;;2.45;1.30;;;9.90;54.60;;;;;;2329337;54;20952;-74
2022/09/22 07:33:39;;;;;;;3.33;1.30;;;10.00;53.90;;;;;;2360491;54;21000;-73
2022/09/22 07:36:17;;;;;;;4.80;1.62;;;10.00;53.80;;;;;;2295922;55;20990;-74
2022/09/22 07:38:45;;;;;;;3.30;1.37;;;10.10;53.90;;;;;;2367164;54;20989;-75
2022/09/22 07:41:12;;;;;;;2.70;1.37;;;10.20;54.60;;;;;;2357414;54;21734;-74
2022/09/22 07:43:39;;;;;;;3.00;1.30;;;10.30;54.10;;;;;;2331708;54;20980;-75
2022/09/22 07:46:06;;;;;;;2.50;1.25;;;10.40;54.20;;;;;;2338920;54;21038;-76
2022/09/22 07:48:36;;;;;;;2.80;1.45;;;10.50;54.20;;;;;;2309358;55;21033;-76
2022/09/22 07:51:04;;;;;;;3.08;1.20;;;10.60;54.40;;;;;;2359774;54;21012;-75
2022/09/22 07:53:31;;;;;;;3.85;1.30;;;10.70;54.40;;;;;;2315265;55;21918;-75
2022/09/22 07:56:22;;;;;;;2.83;1.45;;;10.80;54.40;;;;;;2314012;55;21040;-74
2022/09/22 07:58:50;;;;;;;2.78;1.30;;;10.90;54.60;;;;;;2314940;55;20937;-74
2022/09/22 08:01:18;;;;;;;3.08;1.00;;;11.00;54.60;;;;;;2315564;55;21040;-75
2022/09/22 08:03:46;;;;;;;3.08;1.37;;;11.10;54.70;;;;;;2317394;54;20962;-74
2022/09/22 08:06:13;;;;;;;2.40;1.25;;;11.20;54.80;;;;;;2341492;55;20997;-75
2022/09/22 08:08:47;;;;;;;3.35;1.60;;;11.30;54.90;;;;;;2312762;55;21091;-75
2022/09/22 08:11:16;;;;;;;3.27;1.30;;;11.40;55.00;;;;;;2315887;55;20992;-75
2022/09/22 08:14:04;;;;;;;3.33;1.48;;;11.50;55.00;;;;;;2363505;54;20941;-74
2022/09/22 08:16:32;;;;;;;2.78;1.30;;;11.60;55.10;;;;;;2326637;54;21824;-74
2022/09/22 08:19:01;;;;;;;2.28;1.12;;;11.80;55.20;;;;;;2315068;55;21481;-76
2022/09/22 08:21:30;;;;;;;2.67;1.33;;;11.90;55.20;;;;;;2343338;54;20953;-75
2022/09/22 08:23:56;;;;;;;3.75;1.40;;;12.00;55.20;;;;;;2314857;55;21855;-74
2022/09/22 08:26:23;;;;;;;2.83;1.33;;;12.10;55.20;;;;;;2295203;55;20982;-76
2022/09/22 08:28:53;;;;;;;2.90;1.25;;;12.30;55.20;;;;;;2315829;55;21967;-74
2022/09/22 08:31:20;;;;;;;2.95;1.20;;;12.40;55.30;;;;;;2318254;55;20945;-75
2022/09/22 08:33:50;;;;;;;3.85;1.70;;;12.50;55.30;;;;;;2315073;55;21028;-74
2022/09/22 08:36:17;;;;;;;3.05;1.20;;;12.60;55.30;;;;;;2352686;54;21017;-75
2022/09/22 08:38:48;;;;;;;3.60;1.70;;;12.70;55.20;;;;;;2303931;55;21020;-75
2022/09/22 08:42:19;;;;;;;3.30;1.37;;;12.80;55.30;;;;;;2314434;55;21501;-75
2022/09/22 08:45:37;;;;;;;2.67;1.20;;;12.90;55.30;;;;;;2325623;54;21505;-75
2022/09/22 08:54:04;;;;;;;3.17;1.50;;;13.40;55.10;;;;;;2537326;54;21711;-74
2022/09/22 08:56:45;;;;;;;4.00;1.60;;;13.50;55.00;;;;;;2299438;54;21049;-74
2022/09/22 08:59:23;;;;;;;3.25;1.50;;;13.70;55.10;;;;;;2313653;55;20953;-76
2022/09/22 09:02:54;;;;;;;3.12;1.40;;;13.80;55.10;;;;;;2319872;54;21553;-73
2022/09/22 09:10:14;;;;;;;2.78;1.40;;;13.90;55.20;;;;;;2290777;55;20989;-74
2022/09/22 09:12:59;;;;;;;2.28;1.08;;;14.20;55.00;;;;;;2304552;55;21491;-75
2022/09/22 09:15:42;;;;;;;2.08;1.08;;;14.40;54.60;;;;;;2308695;55;21422;-76
2022/09/22 09:18:15;;;;;;;3.45;1.25;;;14.50;54.70;;;;;;2312445;55;20962;-75
2022/09/22 09:20:45;;;;;;;2.00;1.10;;;14.60;54.90;;;;;;2315518;55;20984;-75
2022/09/22 09:23:23;;;;;;;2.90;1.40;;;14.70;55.00;;;;;;2315030;55;20961;-75
2022/09/22 09:25:52;;;;;;;2.67;1.27;;;14.80;55.10;;;;;;2314729;55;21000;-75
2022/09/22 09:29:05;;;;;;;2.78;1.25;;;15.00;55.00;;;;;;2314778;55;20961;-75
2022/09/22 09:31:38;;;;;;;3.12;1.45;;;15.10;55.00;;;;;;2329935;54;21987;-75
2022/09/22 09:34:13;;;;;;;2.83;1.40;;;15.20;55.00;;;;;;2318135;55;21021;-75
2022/09/22 09:36:54;;;;;;;2.50;1.10;;;15.40;55.00;;;;;;2417394;54;20997;-76
2022/09/22 09:39:33;;;;;;;2.47;1.25;;;15.50;55.00;;;;;;2314389;55;20953;-75
2022/09/22 09:42:00;;;;;;;3.40;1.00;;;15.60;54.90;;;;;;2315046;55;21509;-75
2022/09/22 09:44:30;;;;;;;2.47;1.23;;;15.70;54.80;;;;;;2314674;55;20965;-75
2022/09/22 09:49:59;;;;;;;2.47;1.15;;;15.80;54.80;;;;;;2314900;55;21452;-77
2022/09/22 09:52:25;;;;;;;2.03;0.93;;;16.00;54.70;;;;;;2296148;55;21049;-76
2022/09/22 09:54:53;;;;;;;3.70;1.30;;;16.20;54.50;;;;;;2554907;54;21000;-75
2022/09/22 09:57:20;;;;;;;2.58;1.23;;;16.30;54.40;;;;;;2314245;55;20989;-72
2022/09/22 10:02:37;;;;;;;2.37;1.00;;;16.50;54.20;;;;;;2327023;54;21135;-71
2022/09/22 10:05:40;;;;;;;2.80;1.00;;;16.60;54.10;;;;;;2315644;55;21052;-72
2022/09/22 10:08:15;;;;;;;3.30;1.10;;;16.70;54.00;;;;;;2315529;55;20941;-70
2022/09/22 10:10:41;;;;;;;1.90;0.85;;;16.80;53.90;;;;;;2315318;55;20997;-73
2022/09/22 10:13:23;;;;;;;2.50;1.10;;;16.90;53.90;;;;;;2315527;55;20965;-71
2022/09/22 10:19:28;;;;;;;3.28;1.08;;;16.90;53.70;;;;;;2316064;55;20937;-71
2022/09/22 10:22:16;;;;;;;2.30;0.90;;;17.20;53.80;;;;;;2316500;55;20953;-73
2022/09/22 10:24:58;;;;;;;2.35;0.90;;;17.30;53.50;;;;;;2553872;54;20977;-72
2022/09/22 10:27:25;;;;;;;1.75;0.88;;;17.40;53.50;;;;;;2311975;55;20977;-70
2022/09/22 10:30:20;;;;;;;2.60;1.17;;;17.50;53.50;;;;;;2295674;54;21036;-73
2022/09/22 10:39:37;;;;;;;1.98;0.88;;;17.50;53.60;;;;;;2295279;54;20966;-71
2022/09/22 10:42:06;;;;;;;4.25;0.80;;;17.90;53.30;;;;;;2466538;54;21025;-70
2022/09/22 10:44:33;;;;;;;1.80;0.90;;;17.90;53.10;;;;;;2300448;55;21033;-71
2022/09/22 10:47:38;;;;;;;1.35;0.68;;;18.00;53.10;;;;;;2295442;55;21036;-71
2022/09/22 10:50:28;;;;;;;2.80;0.70;;;18.10;52.80;;;;;;2555633;54;20996;-72
2022/09/22 10:56:34;;;;;;;2.62;0.70;;;18.20;52.90;;;;;;2314607;55;20989;-72
2022/09/22 10:59:09;;;;;;;1.33;0.60;;;18.40;52.90;;;;;;2314394;55;21318;-72
2022/09/22 11:02:02;;;;;;;1.55;0.70;;;18.50;52.80;;;;;;2314916;55;21052;-73
2022/09/22 11:04:56;;;;;;;2.05;0.73;;;18.50;52.40;;;;;;2314143;55;21734;-72
2022/09/22 11:20:42;;;;;;;3.25;0.80;;;18.80;51.90;;;;;;2314803;55;21012;-71
2022/09/22 11:24:43;;;;;;;1.30;0.60;;;19.10;51.90;;;;;;2315166;55;21000;-72
2022/09/22 11:27:16;;;;;;;1.70;0.62;;;19.20;51.40;;;;;;2554066;54;20990;-72
2022/09/22 11:29:54;;;;;;;1.42;0.62;;;19.20;51.40;;;;;;2305779;55;21066;-71
2022/09/22 11:32:44;;;;;;;1.77;0.70;;;19.20;51.40;;;;;;2299240;55;21052;-74
2022/09/22 11:35:32;;;;;;;1.83;0.60;;;19.30;51.00;;;;;;2313493;55;20945;-72
2022/09/22 11:39:39;;;;;;;2.05;0.75;;;19.40;51.30;;;;;;2295596;55;21071;-72
2022/09/22 11:42:23;;;;;;;2.00;0.80;;;19.40;51.40;;;;;;2314436;55;21036;-72
2022/09/22 11:45:09;;;;;;;1.60;0.80;;;19.50;50.70;;;;;;2315029;55;21483;-72
2022/09/22 11:48:29;;;;;;;1.40;0.60;;;19.60;50.60;;;;;;2315304;55;21036;-72
2022/09/22 11:51:11;;;;;;;1.70;0.70;;;19.60;50.10;;;;;;2315068;55;20961;-72
2022/09/22 11:56:39;;;;;;;2.12;0.80;;;19.70;50.30;;;;;;2314598;55;21037;-72
2022/09/22 11:59:14;;;;;;;1.67;0.73;;;19.80;49.90;;;;;;2315417;55;21045;-73
2022/09/22 12:01:41;;;;;;;2.00;0.70;;;19.90;50.10;;;;;;2555511;54;20973;-72
2022/09/22 12:04:31;;;;;;;1.27;0.50;;;19.90;50.20;;;;;;2314083;55;21100;-72
2022/09/22 12:06:57;;;;;;;1.83;0.80;;;20.00;49.70;;;;;;2555055;54;20973;-72
2022/09/22 12:12:01;;;;;;;2.22;0.90;;;20.00;50.00;;;;;;2315394;55;20961;-73
2022/09/22 12:14:29;;;;;;;1.77;0.82;;;20.10;49.70;;;;;;2294765;55;21862;-72
2022/09/22 12:18:09;;;;;;;1.77;0.70;;;20.10;49.70;;;;;;2378328;54;21664;-72
2022/09/22 12:22:18;;;;;;;6.43;0.68;;;20.20;49.20;;;;;;2314817;55;20944;-72
2022/09/22 12:24:45;;;;;;;2.30;1.00;;;20.30;49.20;;;;;;2335153;54;20945;-73
2022/09/22 12:27:18;;;;;;;1.73;0.62;;;20.30;49.40;;;;;;2314784;55;20965;-72
2022/09/22 12:29:51;;;;;;;1.65;0.65;;;20.40;49.10;;;;;;2315375;55;20929;-73
2022/09/22 12:32:23;;;;;;;1.80;0.60;;;20.40;49.20;;;;;;2296217;55;21028;-72
2022/09/22 12:34:50;;;;;;;1.60;0.60;;;20.50;49.00;;;;;;2313838;55;22396;-73
2022/09/22 12:37:28;;;;;;;2.75;1.00;;;20.50;49.10;;;;;;2314830;55;21021;-73
2022/09/22 12:40:05;;;;;;;3.28;0.80;;;20.60;48.70;;;;;;2324710;54;20961;-74
2022/09/22 12:42:38;;;;;;;1.87;0.70;;;20.60;48.70;;;;;;2314627;55;20957;-73
2022/09/22 12:45:49;;;;;;;1.85;0.80;;;20.70;48.60;;;;;;2442514;54;21320;-72
2022/09/22 12:48:37;;;;;;;2.95;0.70;;;20.80;48.20;;;;;;2314569;55;20988;-73
2022/09/22 12:51:29;;;;;;;1.83;0.70;;;20.80;48.20;;;;;;2314074;55;20953;-72
2022/09/22 12:54:46;;;;;;;;;;;;;;;;;;;;;
2022/09/22 12:57:20;;;;;;;1.35;0.60;;;20.90;47.80;;;;;;2314970;55;21005;-74
2022/09/22 12:59:55;;;;;;;2.20;0.70;;;21.00;47.90;;;;;;2314890;55;20972;-73
2022/09/22 13:02:29;;;;;;;1.87;0.80;;;21.00;47.60;;;;;;2315083;55;21021;-72
2022/09/22 13:05:52;;;;;;;1.70;0.80;;;21.00;47.80;;;;;;2315172;55;20977;-73
2022/09/22 13:10:39;;;;;;;1.92;0.65;;;21.10;47.50;;;;;;2315536;55;20937;-73
2022/09/22 13:13:09;;;;;;;2.20;0.70;;;21.20;47.80;;;;;;2319837;55;20972;-73
2022/09/22 13:16:36;;;;;;;1.27;0.62;;;21.20;47.50;;;;;;2304971;54;21052;-73
2022/09/22 13:19:02;;;;;;;1.87;0.60;;;21.30;47.00;;;;;;2312953;55;20949;-72
2022/09/22 13:21:32;;;;;;;2.10;0.80;;;21.30;47.40;;;;;;2315546;55;21405;-73
2022/09/22 13:23:59;;;;;;;1.23;0.60;;;21.40;47.30;;;;;;2396068;54;20986;-73
2022/09/22 13:26:36;;;;;;;1.35;0.55;;;21.40;47.30;;;;;;2300328;55;21019;-73
2022/09/22 13:29:17;;;;;;;1.35;0.50;;;21.50;47.10;;;;;;2314966;55;20929;-73
2022/09/22 13:31:54;;;;;;;2.20;0.70;;;21.50;46.80;;;;;;2314010;55;25586;-73
2022/09/22 13:34:28;;;;;;;1.62;0.50;;;21.60;47.00;;;;;;2316689;55;21763;-73
2022/09/22 13:37:10;;;;;;;1.92;0.60;;;21.60;46.50;;;;;;2400067;54;20933;-73
2022/09/22 13:39:38;;;;;;;1.70;0.50;;;21.70;46.10;;;;;;2366490;54;21469;-72
2022/09/22 13:42:30;;;;;;;1.73;0.60;;;21.70;46.40;;;;;;2314046;55;21424;-73
2022/09/22 13:45:05;;;;;;;1.45;0.52;;;21.70;45.70;;;;;;2353015;54;21028;-73
2022/09/22 13:47:32;;;;;;;2.10;0.60;;;21.80;45.90;;;;;;2315140;55;22018;-73
2022/09/22 13:50:04;;;;;;;1.75;0.55;;;21.80;46.00;;;;;;2315081;55;20940;-71
2022/09/22 13:52:31;;;;;;;3.67;0.70;;;21.80;45.60;;;;;;2313625;55;21536;-72
2022/09/22 13:55:08;;;;;;;1.42;0.45;;;21.90;45.80;;;;;;2295415;55;21071;-72
2022/09/22 13:57:37;;;;;;;1.87;0.60;;;21.90;45.60;;;;;;2313882;55;21706;-72
2022/09/22 14:00:05;;;;;;;1.62;0.50;;;21.90;45.50;;;;;;2315324;55;21020;-73
2022/09/22 14:02:31;;;;;;;1.45;0.50;;;21.90;45.40;;;;;;2315523;55;20945;-72
2022/09/22 14:05:03;;;;;;;1.65;0.60;;;22.00;45.50;;;;;;2314809;54;20993;-73
2022/09/22 14:07:31;;;;;;;1.10;0.50;;;22.00;45.30;;;;;;2314168;54;20978;-72
2022/09/22 14:09:57;;;;;;;1.45;0.50;;;22.10;45.40;;;;;;2297907;54;21709;-73
2022/09/22 14:12:23;;;;;;;0.98;0.43;;;22.10;45.20;;;;;;2315046;55;21046;-73
2022/09/22 14:14:50;;;;;;;1.48;0.52;;;22.10;45.10;;;;;;2482668;54;21060;-72
2022/09/22 14:17:26;;;;;;;0.98;0.40;;;22.20;45.00;;;;;;2310954;54;21289;-72
2022/09/22 14:20:01;;;;;;;2.58;0.50;;;22.20;44.40;;;;;;2313224;55;21581;-72
2022/09/22 14:22:30;;;;;;;1.83;0.60;;;22.20;44.80;;;;;;2321067;55;20997;-72
2022/09/22 14:25:00;;;;;;;1.15;0.52;;;22.20;44.70;;;;;;2313829;55;20980;-73
2022/09/22 14:27:31;;;;;;;1.58;0.68;;;22.20;44.40;;;;;;2313947;55;20937;-72
2022/09/22 14:29:57;;;;;;;1.60;0.60;;;22.30;44.30;;;;;;2402880;54;20972;-73
2022/09/22 14:32:43;;;;;;;2.83;0.60;;;22.30;44.40;;;;;;2383926;54;1907687;-73
2022/09/22 14:35:28;;;;;;;1.87;0.52;;;22.40;44.00;;;;;;2353553;54;21338;-74